Heathsville, Virginia
Current Conditions -  °F | °C
As of 8:53 PM on Sunday 23 Nov 2014 (Local Time) from KNUI Reporting Station
Overcast Overcast  
Wind Chill: 57°   Ceiling: 4800
Heat Index: 57°   Visibility: 10mi
Dew Point: 50°   Wind: 7mph
Humidity: 77%   Direction: 110°ESE
Pressure: 29.98"   Gusts: NA
Location:  37.92°N, 76.47°W
Report Text: KNUI 240153Z AUTO 11006KT 10SM OVC048 14/10 A2998 RMK AO2 RAB0056E09 SLP152 P0000 T01390100
Loading
Personal Weather Stations






























Interactive Weather Map New forecast layout! Learn more

10-Day Weather Forecast

Advertisements
Track Severe Weather on mobile